createdAt,value
2022-12-25T00:03:58.183Z,63
2022-12-25T00:14:05.376Z,63
2022-12-25T00:24:13.332Z,63
2022-12-25T00:34:21.098Z,64
2022-12-25T00:44:29.051Z,65
2022-12-25T00:54:36.978Z,65
2022-12-25T01:04:46.852Z,65
2022-12-25T01:14:54.791Z,66
2022-12-25T01:25:02.664Z,66
2022-12-25T01:35:10.440Z,66
2022-12-25T01:45:18.762Z,67
2022-12-25T01:55:26.617Z,68
2022-12-25T02:05:34.659Z,67
2022-12-25T02:15:42.502Z,67
2022-12-25T02:25:50.311Z,67
2022-12-25T02:45:53.063Z,68
2022-12-25T02:56:00.802Z,66
2022-12-25T03:06:08.807Z,66
2022-12-25T03:16:16.695Z,65
2022-12-25T03:26:24.542Z,64
2022-12-25T03:36:32.425Z,65
2022-12-25T03:46:40.367Z,66
2022-12-25T03:56:48.044Z,67
2022-12-25T04:06:55.819Z,69
2022-12-25T04:17:03.642Z,68
2022-12-25T04:27:11.497Z,69
2022-12-25T04:37:19.378Z,68
2022-12-25T04:47:27.234Z,68
2022-12-25T04:57:35.044Z,68
2022-12-25T05:07:42.985Z,66
2022-12-25T05:17:50.760Z,65
2022-12-25T05:27:58.517Z,66
2022-12-25T05:38:06.595Z,68
2022-12-25T05:48:14.538Z,67
2022-12-25T05:58:22.413Z,65
2022-12-25T06:08:30.311Z,65
2022-12-25T06:18:38.182Z,66
2022-12-25T06:28:45.945Z,66
2022-12-25T06:38:53.853Z,67
2022-12-25T06:49:01.679Z,66
2022-12-25T06:59:09.447Z,66
2022-12-25T07:09:17.345Z,66
2022-12-25T07:19:25.053Z,66
2022-12-25T07:29:33.060Z,66
2022-12-25T07:39:40.853Z,66
2022-12-25T07:49:48.661Z,66
2022-12-25T07:59:56.548Z,65
2022-12-25T08:10:04.647Z,62
2022-12-25T08:20:12.671Z,59
2022-12-25T08:30:22.564Z,59
2022-12-25T08:40:30.684Z,58
2022-12-25T08:50:38.751Z,57
2022-12-25T09:00:49.158Z,58
2022-12-25T09:10:56.508Z,54
2022-12-25T09:21:02.843Z,53
2022-12-25T09:31:02.594Z,53
2022-12-25T09:41:06.029Z,53
2022-12-25T09:51:09.907Z,53
2022-12-25T10:01:17.041Z,50
2022-12-25T10:11:26.115Z,52
2022-12-25T10:21:35.841Z,49
2022-12-25T10:31:35.253Z,49
2022-12-25T10:41:43.565Z,48
2022-12-25T10:51:53.426Z,47
2022-12-25T11:01:55.300Z,47
2022-12-25T11:12:00.665Z,46
2022-12-25T11:22:13.957Z,46
2022-12-25T11:32:18.609Z,46
2022-12-25T11:42:26.610Z,45
2022-12-25T11:52:30.477Z,46
2022-12-25T12:02:28.596Z,49
2022-12-25T12:12:36.483Z,53
2022-12-25T12:22:44.003Z,57
2022-12-25T12:32:52.131Z,58
2022-12-25T12:42:53.718Z,58
2022-12-25T12:53:01.897Z,59
2022-12-25T13:03:10.262Z,60
2022-12-25T13:13:18.466Z,60
2022-12-25T13:23:27.871Z,60
2022-12-25T13:33:35.427Z,60
2022-12-25T13:43:43.560Z,59
2022-12-25T13:53:51.756Z,57
2022-12-25T14:04:01.246Z,59
2022-12-25T14:14:09.744Z,58
2022-12-25T14:24:18.899Z,57
2022-12-25T14:34:18.346Z,58
2022-12-25T14:44:27.553Z,59
2022-12-25T14:54:27.437Z,59
2022-12-25T15:04:36.894Z,61
2022-12-25T15:14:45.074Z,62
2022-12-25T15:24:57.349Z,64
2022-12-25T15:35:03.969Z,66
2022-12-25T15:45:11.994Z,68
2022-12-25T15:55:20.144Z,69
2022-12-25T16:05:29.480Z,70
2022-12-25T16:15:37.722Z,71
2022-12-25T16:25:47.131Z,71
2022-12-25T16:35:55.338Z,71
2022-12-25T16:46:03.200Z,72
2022-12-25T16:56:11.250Z,71
2022-12-25T17:16:22.380Z,73
2022-12-25T17:26:24.758Z,73
2022-12-25T17:36:34.980Z,73
2022-12-25T17:46:43.094Z,74
2022-12-25T17:56:51.405Z,74
2022-12-25T18:06:52.362Z,73
2022-12-25T18:17:01.898Z,73
2022-12-25T18:27:10.335Z,73
2022-12-25T18:37:19.551Z,73
2022-12-25T18:47:30.929Z,72
2022-12-25T18:57:28.659Z,71
2022-12-25T19:07:38.786Z,70
2022-12-25T19:17:39.666Z,69
2022-12-25T19:27:38.864Z,68
2022-12-25T19:37:47.954Z,65
2022-12-25T19:47:57.453Z,65
2022-12-25T19:58:01.548Z,65
2022-12-25T20:08:04.857Z,66
2022-12-25T20:18:45.421Z,65
2022-12-25T20:28:21.798Z,65
2022-12-25T20:38:20.451Z,66
2022-12-25T20:48:29.139Z,67
2022-12-25T20:58:40.285Z,66
2022-12-25T21:09:02.940Z,65
2022-12-25T21:18:54.131Z,63
2022-12-25T21:28:53.758Z,62
2022-12-25T21:39:02.870Z,61
2022-12-25T21:49:06.819Z,61
2022-12-25T21:59:20.493Z,62
2022-12-25T22:09:20.052Z,62
2022-12-25T22:19:22.209Z,63
2022-12-25T22:29:20.784Z,64
2022-12-25T22:39:30.745Z,64
2022-12-25T22:49:29.115Z,65
2022-12-25T22:59:37.295Z,66
2022-12-25T23:09:46.323Z,66
2022-12-25T23:19:54.216Z,65
2022-12-25T23:30:02.191Z,64
2022-12-25T23:40:10.096Z,64
2022-12-25T23:50:17.989Z,64
